createdAt,value
2023-03-25T00:01:45.416Z,35.74
2023-03-25T00:04:13.163Z,32.90
2023-03-25T00:06:42.196Z,35.52
2023-03-25T00:09:09.772Z,33.75
2023-03-25T00:11:37.310Z,32.68
2023-03-25T00:14:04.972Z,38.37
2023-03-25T00:16:32.702Z,28.92
2023-03-25T00:19:00.404Z,30.53
2023-03-25T00:21:28.062Z,26.28
2023-03-25T00:23:57.099Z,29.61
2023-03-25T00:26:24.758Z,23.01
2023-03-25T00:28:52.407Z,24.48
2023-03-25T00:31:20.105Z,23.27
2023-03-25T00:33:47.780Z,29.11
2023-03-25T00:36:15.783Z,25.77
2023-03-25T00:38:44.029Z,23.92
2023-03-25T00:41:15.443Z,29.63
2023-03-25T00:43:44.123Z,30.74
2023-03-25T00:46:11.973Z,27.92
2023-03-25T00:48:41.108Z,31.78
2023-03-25T00:51:09.089Z,34.99
2023-03-25T00:53:38.203Z,35.33
2023-03-25T00:56:07.269Z,35.03
2023-03-25T00:58:36.266Z,31.54
2023-03-25T01:01:09.138Z,31.49
2023-03-25T01:03:36.959Z,69.40
2023-03-25T01:06:09.835Z,28.42
2023-03-25T01:08:38.001Z,23.74
2023-03-25T01:11:06.811Z,25.00
2023-03-25T01:13:35.774Z,34.91
2023-03-25T01:16:07.500Z,24.80
2023-03-25T01:18:35.175Z,23.83
2023-03-25T01:21:02.902Z,22.11
2023-03-25T01:23:30.583Z,20.28
2023-03-25T01:25:58.313Z,20.18
2023-03-25T01:28:26.528Z,23.03
2023-03-25T01:31:02.455Z,24.12
2023-03-25T01:33:30.232Z,26.51
2023-03-25T01:35:57.942Z,28.87
2023-03-25T01:38:26.546Z,30.36
2023-03-25T01:40:54.926Z,30.02
2023-03-25T01:43:24.589Z,29.31
2023-03-25T01:45:52.326Z,29.39
2023-03-25T01:48:27.993Z,31.29
2023-03-25T01:51:03.150Z,29.22
2023-03-25T01:53:33.106Z,30.00
2023-03-25T01:56:04.684Z,29.06
2023-03-25T01:58:35.362Z,29.37
2023-03-25T02:01:03.833Z,30.69
2023-03-25T02:03:33.977Z,28.85
2023-03-25T02:06:06.000Z,29.72
2023-03-25T02:08:38.656Z,30.17
2023-03-25T02:11:07.518Z,33.35
2023-03-25T02:13:39.757Z,29.91
2023-03-25T02:16:21.804Z,33.17
2023-03-25T02:19:05.379Z,32.09
2023-03-25T02:22:04.172Z,27.57
2023-03-25T02:25:02.225Z,29.44
2023-03-25T02:27:47.010Z,28.70
2023-03-25T02:30:52.834Z,26.86
2023-03-25T02:34:02.420Z,27.68
2023-03-25T02:37:10.729Z,33.18
2023-03-25T02:39:46.651Z,34.50
2023-03-25T02:42:23.136Z,34.61
2023-03-25T02:44:59.520Z,37.94
2023-03-25T02:47:33.374Z,37.17
2023-03-25T02:50:07.604Z,33.74
2023-03-25T02:52:39.929Z,34.73
2023-03-25T02:55:14.052Z,30.21
2023-03-25T02:57:46.211Z,34.11
2023-03-25T03:00:18.576Z,31.37
2023-03-25T03:02:54.678Z,37.26
2023-03-25T03:05:25.796Z,27.98
2023-03-25T03:08:07.450Z,72.58
2023-03-25T03:10:46.583Z,32.51
2023-03-25T03:13:29.471Z,30.56
2023-03-25T03:16:09.566Z,30.76
2023-03-25T03:18:50.544Z,30.15
2023-03-25T03:21:27.861Z,29.53
2023-03-25T03:24:01.115Z,29.67
2023-03-25T03:26:38.705Z,29.13
2023-03-25T03:29:14.793Z,28.97
2023-03-25T03:32:05.748Z,25.95
2023-03-25T03:34:46.865Z,31.99
2023-03-25T03:37:20.946Z,30.73
2023-03-25T03:39:53.526Z,35.29
2023-03-25T03:42:29.871Z,37.10
2023-03-25T03:45:05.116Z,27.94
2023-03-25T03:47:39.206Z,33.24
2023-03-25T03:50:13.590Z,24.05
2023-03-25T03:52:47.299Z,19.29
2023-03-25T03:55:20.832Z,21.32
2023-03-25T03:57:55.373Z,21.49
2023-03-25T04:00:31.634Z,19.44
2023-03-25T04:03:07.820Z,21.91
2023-03-25T04:05:38.250Z,24.05
2023-03-25T04:08:18.541Z,23.41
2023-03-25T04:10:54.816Z,25.34
2023-03-25T04:13:26.454Z,23.45
2023-03-25T04:15:54.280Z,24.46
2023-03-25T04:18:22.094Z,24.03
2023-03-25T04:20:49.817Z,31.04
2023-03-25T04:23:17.466Z,22.80
2023-03-25T04:25:45.666Z,24.03
2023-03-25T04:28:13.487Z,24.69
2023-03-25T04:30:42.477Z,26.89
2023-03-25T04:33:10.136Z,25.06
2023-03-25T04:35:39.086Z,28.00
2023-03-25T04:38:07.729Z,25.64
2023-03-25T04:40:35.539Z,26.52
2023-03-25T04:43:03.138Z,23.43
2023-03-25T04:45:30.853Z,22.71
2023-03-25T04:47:59.944Z,24.53
2023-03-25T04:50:30.188Z,28.68
2023-03-25T04:52:58.466Z,27.57
2023-03-25T04:55:26.272Z,27.31
2023-03-25T04:57:55.088Z,25.60
2023-03-25T05:00:24.883Z,23.26
2023-03-25T05:02:54.729Z,26.84
2023-03-25T05:05:25.640Z,25.81
2023-03-25T05:07:55.133Z,24.09
2023-03-25T05:10:25.407Z,23.37
2023-03-25T05:12:59.514Z,27.00
2023-03-25T05:15:27.161Z,30.09
2023-03-25T05:17:54.909Z,29.56
2023-03-25T05:20:24.266Z,25.95
2023-03-25T05:22:51.921Z,30.85
2023-03-25T05:25:19.587Z,29.91
2023-03-25T05:27:47.911Z,26.72
2023-03-25T05:30:15.520Z,35.61
2023-03-25T05:32:43.185Z,28.37
2023-03-25T05:35:11.487Z,26.08
2023-03-25T05:37:40.444Z,26.47
2023-03-25T05:40:14.795Z,26.00
2023-03-25T05:42:43.497Z,22.70
2023-03-25T05:45:11.307Z,23.50
2023-03-25T05:47:39.038Z,23.03
2023-03-25T05:50:08.092Z,26.06
2023-03-25T05:52:35.871Z,23.58
2023-03-25T05:55:12.198Z,23.40
2023-03-25T05:57:40.905Z,22.16
2023-03-25T06:00:10.934Z,22.17
2023-03-25T06:02:40.005Z,21.30
2023-03-25T06:05:08.705Z,30.81
2023-03-25T06:07:36.337Z,27.86
2023-03-25T06:10:06.499Z,60.95
2023-03-25T06:12:34.935Z,26.55
2023-03-25T06:15:02.634Z,72.30
2023-03-25T06:17:30.285Z,58.96
2023-03-25T06:19:58.305Z,28.57
2023-03-25T06:22:26.348Z,29.07
2023-03-25T06:24:53.969Z,30.20
2023-03-25T06:27:23.146Z,24.92
2023-03-25T06:29:50.854Z,21.54
2023-03-25T06:32:18.513Z,25.14
2023-03-25T06:34:46.251Z,25.41
2023-03-25T06:37:13.828Z,24.70
2023-03-25T06:39:42.014Z,24.18
2023-03-25T06:42:09.946Z,28.87
2023-03-25T06:44:39.024Z,23.30
2023-03-25T06:47:06.734Z,68.47
2023-03-25T06:49:34.460Z,26.61
2023-03-25T06:52:02.038Z,32.45
2023-03-25T06:54:29.830Z,22.63
2023-03-25T06:56:57.540Z,22.96
2023-03-25T06:59:25.925Z,21.96
2023-03-25T07:01:54.908Z,23.45
2023-03-25T07:04:22.609Z,26.81
2023-03-25T07:06:50.532Z,24.76
2023-03-25T07:09:18.173Z,22.24
2023-03-25T07:11:45.946Z,23.00
2023-03-25T07:14:14.681Z,24.93
2023-03-25T07:16:42.441Z,25.15
2023-03-25T07:19:11.662Z,25.60
2023-03-25T07:21:39.391Z,25.41
2023-03-25T07:24:07.827Z,25.94
2023-03-25T07:26:35.551Z,25.43
2023-03-25T07:29:03.202Z,25.35
2023-03-25T07:31:31.079Z,25.30
2023-03-25T07:33:58.820Z,25.05
2023-03-25T07:36:28.895Z,23.98
2023-03-25T07:38:57.217Z,23.18
2023-03-25T07:41:25.064Z,24.53
2023-03-25T07:43:52.707Z,30.70
2023-03-25T07:46:20.422Z,25.78
2023-03-25T07:48:48.134Z,48.52
2023-03-25T07:51:16.836Z,43.74
2023-03-25T07:53:46.434Z,85.45
2023-03-25T07:56:14.563Z,37.95
2023-03-25T07:58:42.263Z,25.03
2023-03-25T08:01:10.342Z,23.71
2023-03-25T08:03:38.101Z,131.57
2023-03-25T08:06:07.141Z,28.84
2023-03-25T08:08:34.998Z,28.64
2023-03-25T08:11:04.459Z,28.72
2023-03-25T08:13:32.096Z,32.41
2023-03-25T08:15:59.656Z,31.74
2023-03-25T08:18:27.325Z,31.06
2023-03-25T08:20:54.961Z,44.04
2023-03-25T08:23:22.624Z,28.78
2023-03-25T08:25:51.224Z,32.66
2023-03-25T08:28:22.371Z,31.35
2023-03-25T08:30:51.077Z,34.61
2023-03-25T08:33:18.954Z,28.83
2023-03-25T08:35:46.574Z,34.74
2023-03-25T08:38:14.256Z,26.52
2023-03-25T08:40:43.219Z,32.67
2023-03-25T08:43:11.308Z,31.26
2023-03-25T08:45:40.588Z,25.99
2023-03-25T08:48:08.186Z,30.98
2023-03-25T08:50:35.810Z,27.97
2023-03-25T08:53:03.344Z,34.93
2023-03-25T08:55:30.887Z,36.17
2023-03-25T08:58:01.915Z,32.66
2023-03-25T09:00:29.608Z,33.28
2023-03-25T09:02:58.601Z,27.96
2023-03-25T09:05:26.927Z,29.21
2023-03-25T09:07:54.604Z,35.14
2023-03-25T09:10:22.567Z,35.72
2023-03-25T09:12:50.235Z,29.85
2023-03-25T09:15:17.898Z,32.03
2023-03-25T09:17:45.880Z,35.99
2023-03-25T09:20:15.494Z,34.49
2023-03-25T09:22:43.225Z,29.30
2023-03-25T09:25:11.225Z,33.87
2023-03-25T09:27:38.928Z,29.96
2023-03-25T09:30:08.544Z,35.11
2023-03-25T09:32:36.253Z,36.84
2023-03-25T09:35:04.721Z,28.70
2023-03-25T09:37:34.287Z,27.77
2023-03-25T09:40:01.987Z,28.12
2023-03-25T09:42:45.000Z,30.00
2023-03-25T09:45:25.552Z,27.36
2023-03-25T09:47:59.748Z,29.15
2023-03-25T09:50:31.987Z,27.65
2023-03-25T09:53:11.836Z,24.95
2023-03-25T09:55:42.661Z,32.68
2023-03-25T09:58:34.233Z,36.96
2023-03-25T10:01:27.221Z,35.66
2023-03-25T10:04:10.560Z,6.49
2023-03-25T10:06:53.014Z,4.14
2023-03-25T10:09:38.661Z,4.47
2023-03-25T10:12:21.459Z,4.32
2023-03-25T10:15:03.103Z,4.66
2023-03-25T10:17:41.764Z,4.51
2023-03-25T10:20:20.767Z,4.17
2023-03-25T10:23:02.928Z,3.54
2023-03-25T10:25:40.115Z,3.52
2023-03-25T10:28:18.660Z,3.60
2023-03-25T10:30:51.647Z,3.70
2023-03-25T10:33:30.070Z,3.61
2023-03-25T10:36:00.396Z,3.55
2023-03-25T10:38:31.714Z,3.77
2023-03-25T10:41:13.012Z,3.69
2023-03-25T10:43:43.068Z,3.39
2023-03-25T10:46:22.166Z,3.81
2023-03-25T10:48:50.806Z,3.26
2023-03-25T10:51:23.562Z,3.44
2023-03-25T10:53:52.223Z,3.21
2023-03-25T10:56:25.761Z,2.86
2023-03-25T10:58:55.601Z,3.18
2023-03-25T11:01:35.401Z,3.70
2023-03-25T11:04:06.597Z,3.05
2023-03-25T11:06:37.642Z,2.76
2023-03-25T11:09:16.763Z,2.57
2023-03-25T11:11:46.494Z,3.29
2023-03-25T11:14:14.510Z,3.26
2023-03-25T11:16:47.231Z,3.20
2023-03-25T11:19:21.177Z,2.82
2023-03-25T11:21:55.050Z,3.60
2023-03-25T11:24:30.122Z,3.13
2023-03-25T11:27:01.245Z,3.45
2023-03-25T11:29:30.270Z,2.86
2023-03-25T11:32:06.342Z,2.78
2023-03-25T11:34:36.631Z,2.92
2023-03-25T11:37:15.280Z,15.96
2023-03-25T11:39:43.012Z,2.19
2023-03-25T11:42:24.613Z,1.87
2023-03-25T11:44:55.424Z,2.08
2023-03-25T11:47:26.866Z,1.86
2023-03-25T11:49:54.749Z,1.71
2023-03-25T11:52:26.142Z,2.07
2023-03-25T11:54:55.463Z,1.98
2023-03-25T11:57:33.633Z,2.51
2023-03-25T12:00:05.598Z,2.36
2023-03-25T12:02:38.349Z,2.03
2023-03-25T12:05:13.461Z,2.03
2023-03-25T12:07:43.172Z,2.16
2023-03-25T12:10:18.840Z,1.95
2023-03-25T12:12:58.712Z,1.55
2023-03-25T12:15:36.630Z,1.83
2023-03-25T12:18:21.552Z,4.38
2023-03-25T12:21:01.071Z,2.36
2023-03-25T12:23:43.716Z,1.76
2023-03-25T12:26:16.975Z,1.86
2023-03-25T12:29:10.129Z,1.62
2023-03-25T12:32:03.478Z,24.02
2023-03-25T12:34:47.176Z,2.36
2023-03-25T12:37:28.877Z,1.71
2023-03-25T12:40:31.901Z,1.46
2023-03-25T12:43:04.622Z,1.95
2023-03-25T12:45:57.403Z,1.65
2023-03-25T12:48:44.676Z,3.55
2023-03-25T12:51:24.935Z,34.40
2023-03-25T12:54:07.789Z,1.57
2023-03-25T12:56:48.152Z,1.50
2023-03-25T12:59:35.534Z,1.32
2023-03-25T13:02:19.094Z,1.40
2023-03-25T13:05:05.238Z,1.27
2023-03-25T13:07:40.049Z,0.86
2023-03-25T13:10:17.833Z,4.49
2023-03-25T13:12:50.937Z,6.83
2023-03-25T13:15:27.449Z,6.52
2023-03-25T13:18:03.695Z,1.29
2023-03-25T13:20:37.820Z,2.19
2023-03-25T13:23:12.716Z,1.79
2023-03-25T13:25:50.620Z,1.41
2023-03-25T13:28:23.770Z,1.48
2023-03-25T13:30:54.111Z,1.18
2023-03-25T13:33:28.772Z,1.57
2023-03-25T13:36:05.420Z,1.53
2023-03-25T13:38:37.471Z,1.35
2023-03-25T13:41:12.716Z,1.32
2023-03-25T13:43:52.457Z,1.26
2023-03-25T13:46:25.746Z,1.16
2023-03-25T13:49:01.828Z,1.38
2023-03-25T13:51:29.636Z,1.60
2023-03-25T13:54:05.789Z,1.19
2023-03-25T13:56:54.847Z,1.30
2023-03-25T14:00:16.437Z,1.39
2023-03-25T14:03:10.429Z,1.53
2023-03-25T14:06:23.331Z,1.39
2023-03-25T14:09:26.907Z,1.48
2023-03-25T14:12:05.773Z,1.57
2023-03-25T14:14:39.042Z,1.82
2023-03-25T14:17:07.978Z,3.49
2023-03-25T14:19:39.284Z,9.47
2023-03-25T14:22:13.070Z,2.79
2023-03-25T14:24:43.179Z,1.60
2023-03-25T14:27:18.358Z,1.38
2023-03-25T14:29:55.360Z,1.19
2023-03-25T14:32:32.570Z,1.18
2023-03-25T14:35:37.336Z,1.75
2023-03-25T14:38:46.475Z,1.92
2023-03-25T14:41:15.384Z,1.89
2023-03-25T14:43:46.304Z,1.16
2023-03-25T14:46:21.622Z,1.09
2023-03-25T14:48:51.871Z,1.15
2023-03-25T14:51:44.567Z,1.99
2023-03-25T14:54:29.206Z,1.55
2023-03-25T14:57:06.494Z,1.62
2023-03-25T14:59:39.279Z,1.28
2023-03-25T15:02:15.629Z,1.23
2023-03-25T15:04:59.241Z,1.38
2023-03-25T15:07:42.790Z,1.48
2023-03-25T15:13:33.728Z,1.41
2023-03-25T15:16:05.829Z,2.00
2023-03-25T15:19:00.633Z,1.79
2023-03-25T15:21:33.164Z,1.80
2023-03-25T15:24:07.291Z,1.59
2023-03-25T15:26:38.765Z,2.23
2023-03-25T15:29:41.678Z,1.63
2023-03-25T15:32:40.309Z,4.95
2023-03-25T15:35:31.993Z,5.25
2023-03-25T15:38:22.451Z,1.29
2023-03-25T15:41:09.549Z,1.25
2023-03-25T15:44:01.079Z,0.94
2023-03-25T15:46:54.482Z,1.37
2023-03-25T15:49:42.784Z,2.63
2023-03-25T15:52:33.786Z,4.90
2023-03-25T15:55:09.215Z,23.16
2023-03-25T15:57:44.061Z,159.26
2023-03-25T16:00:20.049Z,1.91
2023-03-25T16:03:04.083Z,1.13
2023-03-25T16:05:34.924Z,1.39
2023-03-25T16:08:10.321Z,1.13
2023-03-25T16:10:38.134Z,0.95
2023-03-25T16:13:11.418Z,0.93
2023-03-25T16:15:40.864Z,0.96
2023-03-25T16:18:15.613Z,0.67
2023-03-25T16:20:45.374Z,0.90
2023-03-25T16:23:19.742Z,1.42
2023-03-25T16:25:49.810Z,0.81
2023-03-25T16:28:23.461Z,1.31
2023-03-25T16:30:53.192Z,1.02
2023-03-25T16:33:27.742Z,0.81
2023-03-25T16:35:58.987Z,1.10
2023-03-25T16:38:27.130Z,1.09
2023-03-25T16:41:01.054Z,1.47
2023-03-25T16:43:30.989Z,0.92
2023-03-25T16:46:01.777Z,0.93
2023-03-25T16:48:35.412Z,0.89
2023-03-25T16:51:12.610Z,1.26
2023-03-25T16:53:41.408Z,1.24
2023-03-25T16:56:23.320Z,1.14
2023-03-25T16:58:58.283Z,1.26
2023-03-25T17:01:26.890Z,1.02
2023-03-25T17:04:08.729Z,1.34
2023-03-25T17:06:40.764Z,2.40
2023-03-25T17:09:16.348Z,2.93
2023-03-25T17:11:46.640Z,1.49
2023-03-25T17:14:20.728Z,1.75
2023-03-25T17:16:52.524Z,1.46
2023-03-25T17:19:26.526Z,2.00
2023-03-25T17:22:15.629Z,1.45
2023-03-25T17:24:52.116Z,1.66
2023-03-25T17:27:27.998Z,1.50
2023-03-25T17:29:59.270Z,1.79
2023-03-25T17:32:27.022Z,1.54
2023-03-25T17:35:05.533Z,1.40
2023-03-25T17:37:34.386Z,2.21
2023-03-25T17:40:06.058Z,6.98
2023-03-25T17:42:37.912Z,2.24
2023-03-25T17:45:06.729Z,1.99
2023-03-25T17:47:34.379Z,1.76
2023-03-25T17:50:14.274Z,1.88
2023-03-25T17:52:41.803Z,2.08
2023-03-25T17:55:10.209Z,2.08
2023-03-25T17:57:38.158Z,2.19
2023-03-25T18:00:09.761Z,1.71
2023-03-25T18:02:37.866Z,2.22
2023-03-25T18:05:08.079Z,2.53
2023-03-25T18:07:35.625Z,2.20
2023-03-25T18:10:13.681Z,2.14
2023-03-25T18:12:42.700Z,2.05
2023-03-25T18:15:10.962Z,2.35
2023-03-25T18:17:39.252Z,2.57
2023-03-25T18:20:14.999Z,1.99
2023-03-25T18:22:43.401Z,1.95
2023-03-25T18:25:11.454Z,1.66
2023-03-25T18:27:43.866Z,1.62
2023-03-25T18:30:25.021Z,1.71
2023-03-25T18:32:53.940Z,2.74
2023-03-25T18:35:23.168Z,3.26
2023-03-25T18:37:50.868Z,3.80
2023-03-25T18:40:21.456Z,1.81
2023-03-25T18:42:50.133Z,2.70
2023-03-25T18:45:18.415Z,1.84
2023-03-25T18:47:47.167Z,3.33
2023-03-25T18:50:18.282Z,2.15
2023-03-25T18:52:47.200Z,3.05
2023-03-25T18:55:14.951Z,2.94
2023-03-25T18:57:42.488Z,2.49
2023-03-25T19:00:17.867Z,3.08
2023-03-25T19:02:45.785Z,3.61
2023-03-25T19:05:13.644Z,1.70
2023-03-25T19:07:41.643Z,1.87
2023-03-25T19:10:16.996Z,2.14
2023-03-25T19:12:45.661Z,4.16
2023-03-25T19:15:16.717Z,3.62
2023-03-25T19:17:49.572Z,2.20
2023-03-25T19:20:19.598Z,1.53
2023-03-25T19:22:47.889Z,1.62
2023-03-25T19:25:17.638Z,2.57
2023-03-25T19:27:46.149Z,1.69
2023-03-25T19:30:18.303Z,1.75
2023-03-25T19:32:47.505Z,5.84
2023-03-25T19:35:18.254Z,3.92
2023-03-25T19:37:45.885Z,4.00
2023-03-25T19:40:15.661Z,4.04
2023-03-25T19:42:45.825Z,4.59
2023-03-25T19:45:15.638Z,3.19
2023-03-25T19:47:45.303Z,3.37
2023-03-25T19:50:15.778Z,3.30
2023-03-25T19:52:43.692Z,3.36
2023-03-25T19:55:11.557Z,3.06
2023-03-25T19:57:39.329Z,3.06
2023-03-25T20:00:11.114Z,4.63
2023-03-25T20:02:39.758Z,5.88
2023-03-25T20:05:08.834Z,3.94
2023-03-25T20:07:38.364Z,4.19
2023-03-25T20:10:19.551Z,4.73
2023-03-25T20:12:49.482Z,3.87
2023-03-25T20:15:20.101Z,3.60
2023-03-25T20:17:48.802Z,3.55
2023-03-25T20:20:16.870Z,5.06
2023-03-25T20:22:44.705Z,3.44
2023-03-25T20:25:14.152Z,3.48
2023-03-25T20:27:43.291Z,3.24
2023-03-25T20:30:14.485Z,2.96
2023-03-25T20:32:45.688Z,2.73
2023-03-25T20:35:16.816Z,2.65
2023-03-25T20:37:46.390Z,3.12
2023-03-25T20:40:16.491Z,4.36
2023-03-25T20:42:46.103Z,3.99
2023-03-25T20:45:16.256Z,4.24
2023-03-25T20:47:45.656Z,3.31
2023-03-25T20:50:15.377Z,3.83
2023-03-25T20:52:43.326Z,3.43
2023-03-25T20:55:11.075Z,3.49
2023-03-25T20:57:39.410Z,3.16
2023-03-25T21:00:08.815Z,2.45
2023-03-25T21:02:36.520Z,3.14
2023-03-25T21:05:06.819Z,2.91
2023-03-25T21:07:34.588Z,2.67
2023-03-25T21:10:02.129Z,10.81
2023-03-25T21:12:42.495Z,6.02
2023-03-25T21:15:13.477Z,4.41
2023-03-25T21:17:41.214Z,2.69
2023-03-25T21:20:10.998Z,2.97
2023-03-25T21:22:41.230Z,2.67
2023-03-25T21:25:08.791Z,2.68
2023-03-25T21:27:38.667Z,3.47
2023-03-25T21:30:10.153Z,3.05
2023-03-25T21:32:37.911Z,3.26
2023-03-25T21:35:06.555Z,110.41
2023-03-25T21:37:36.675Z,54.02
2023-03-25T21:40:05.894Z,3.92
2023-03-25T21:42:33.620Z,3.51
2023-03-25T21:45:01.186Z,3.73
2023-03-25T21:47:29.142Z,14.69
2023-03-25T21:49:56.808Z,4.97
2023-03-25T21:52:24.358Z,6.63
2023-03-25T21:54:53.351Z,4.29
2023-03-25T21:57:20.998Z,3.44
2023-03-25T21:59:48.559Z,3.83
2023-03-25T22:02:16.080Z,2.97
2023-03-25T22:04:43.798Z,3.48
2023-03-25T22:07:11.427Z,5.14
2023-03-25T22:09:39.113Z,7.16
2023-03-25T22:12:08.083Z,3.49
2023-03-25T22:14:35.715Z,4.84
2023-03-25T22:17:03.784Z,3.19
2023-03-25T22:19:31.493Z,2.73
2023-03-25T22:21:59.114Z,2.51
2023-03-25T22:24:27.889Z,2.61
2023-03-25T22:26:56.676Z,3.19
2023-03-25T22:29:25.975Z,3.20
2023-03-25T22:31:53.773Z,2.45
2023-03-25T22:34:21.809Z,2.27
2023-03-25T22:36:51.054Z,2.78
2023-03-25T22:39:20.492Z,3.58
2023-03-25T22:41:48.200Z,3.78
2023-03-25T22:44:15.756Z,3.26
2023-03-25T22:46:45.396Z,3.34
2023-03-25T22:49:13.468Z,3.65
2023-03-25T22:51:41.377Z,3.33
2023-03-25T22:54:10.360Z,2.94
2023-03-25T22:56:38.316Z,2.23
2023-03-25T22:59:07.516Z,2.25
2023-03-25T23:01:35.081Z,2.38
2023-03-25T23:04:04.328Z,2.76
2023-03-25T23:06:31.905Z,2.31
2023-03-25T23:08:59.548Z,3.64
2023-03-25T23:11:29.495Z,2.98
2023-03-25T23:14:00.056Z,2.92
2023-03-25T23:16:30.392Z,2.69
2023-03-25T23:18:58.418Z,2.77
2023-03-25T23:21:30.172Z,2.62
2023-03-25T23:24:00.487Z,3.51
2023-03-25T23:26:33.612Z,3.17
2023-03-25T23:29:02.102Z,2.75
2023-03-25T23:31:32.678Z,3.46
2023-03-25T23:34:02.679Z,3.56
2023-03-25T23:36:33.717Z,3.47
2023-03-25T23:39:02.632Z,2.98
2023-03-25T23:41:30.225Z,2.38
2023-03-25T23:43:58.077Z,2.35
2023-03-25T23:46:27.706Z,2.24
2023-03-25T23:48:55.290Z,2.60
2023-03-25T23:51:24.955Z,2.51
2023-03-25T23:53:53.932Z,2.33
2023-03-25T23:56:24.158Z,2.82
2023-03-25T23:58:52.602Z,2.83
